Wetterstation Vordersexau
Wetterdaten: Woche 30.01.12 - 05.02.12 (KW5)
Datum Zeit Temp. A. Feuchte A. Luftdruck Regen Wind Richtung Taupunkt Windchill Windben
30.01.2012 00:00 -0,3 C 87 % 1021,3 hPa 0,0 l/m 0,0 km/h W-SW -2,2 C -0,3 C 0,0 km/h
30.01.2012 01:00 -0,4 C 87 % 1021,2 hPa 0,0 l/m 0,0 km/h W -2,3 C -0,4 C 0,0 km/h
30.01.2012 02:00 -0,5 C 87 % 1021,2 hPa 0,0 l/m 0,0 km/h W-SW -2,4 C -0,5 C 0,0 km/h
30.01.2012 03:00 -0,5 C 86 % 1021,2 hPa 0,0 l/m 1,9 km/h SW -2,5 C -0,5 C 1,1 km/h
30.01.2012 04:00 -0,6 C 87 % 1021,3 hPa 0,0 l/m 0,0 km/h W-SW -2,5 C -0,6 C 0,0 km/h
30.01.2012 05:00 -0,4 C 86 % 1021,6 hPa 0,0 l/m 0,0 km/h W-SW -2,4 C -0,4 C 0,0 km/h
30.01.2012 06:00 -0,4 C 87 % 1021,6 hPa 0,0 l/m 0,0 km/h W -2,3 C -0,4 C 0,0 km/h
30.01.2012 07:00 -0,4 C 87 % 1021,7 hPa 0,0 l/m 0,0 km/h W -2,3 C -0,4 C 0,0 km/h
30.01.2012 08:00 -0,4 C 87 % 1021,9 hPa 0,0 l/m 0,0 km/h W -2,3 C -0,4 C 0,0 km/h
30.01.2012 09:00 -0,2 C 87 % 1022,0 hPa 0,0 l/m 0,0 km/h W -2,1 C -0,2 C 0,0 km/h
30.01.2012 10:00 0,1 C 87 % 1022,0 hPa 0,0 l/m 0,0 km/h W-NW -1,8 C 0,1 C 0,0 km/h
30.01.2012 11:00 0,7 C 87 % 1022,1 hPa 0,0 l/m 0,0 km/h W-NW -1,2 C 0,7 C 0,0 km/h
30.01.2012 12:00 1,1 C 87 % 1021,9 hPa 0,0 l/m 0,0 km/h N-NW -0,8 C 1,1 C 0,0 km/h
30.01.2012 13:00 1,1 C 87 % 1021,3 hPa 0,0 l/m 0,0 km/h N-NW -0,8 C 1,1 C 0,0 km/h
30.01.2012 14:00 1,3 C 86 % 1021,2 hPa 0,0 l/m 0,0 km/h NW -0,8 C 1,3 C 0,0 km/h
30.01.2012 15:00 0,9 C 87 % 1021,3 hPa 0,0 l/m 0,0 km/h N-NO -1,0 C 0,9 C 0,0 km/h
30.01.2012 16:00 0,5 C 87 % 1021,1 hPa 0,0 l/m 0,0 km/h NO -1,4 C 0,5 C 0,0 km/h
30.01.2012 17:00 0,1 C 87 % 1021,1 hPa 0,0 l/m 0,0 km/h NO -1,8 C 0,1 C 0,0 km/h
30.01.2012 18:00 -0,2 C 87 % 1021,2 hPa 0,0 l/m 0,0 km/h N-NW -2,1 C -0,2 C 0,0 km/h
30.01.2012 19:00 -0,1 C 87 % 1021,1 hPa 0,0 l/m 0,0 km/h N-NW -2,0 C -0,1 C 0,0 km/h
30.01.2012 20:00 -0,1 C 86 % 1020,7 hPa 0,0 l/m 0,0 km/h N-NW -2,2 C -0,1 C 0,0 km/h
30.01.2012 21:00 0,1 C 86 % 1020,5 hPa 0,0 l/m 0,0 km/h N-NW -2,0 C 0,1 C 0,0 km/h
30.01.2012 22:00 0,0 C 86 % 1020,1 hPa 0,0 l/m 0,0 km/h NW -2,1 C 0,0 C 0,0 km/h
30.01.2012 23:00 -0,1 C 85 % 1019,4 hPa 0,0 l/m 0,0 km/h NW -2,3 C -0,1 C 0,0 km/h
31.01.2012 00:00 -0,2 C 85 % 1019,4 hPa 0,0 l/m 0,0 km/h W-NW -2,4 C -0,2 C 0,0 km/h
31.01.2012 01:00 -0,4 C 85 % 1018,9 hPa 0,0 l/m 0,0 km/h W-NW -2,6 C -0,4 C 0,0 km/h
31.01.2012 02:00 -0,6 C 84 % 1018,2 hPa 0,0 l/m 0,0 km/h W-NW -3,0 C -0,6 C 0,0 km/h
31.01.2012 03:00 -0,7 C 84 % 1017,6 hPa 0,0 l/m 0,0 km/h W-NW -3,1 C -0,7 C 0,0 km/h
31.01.2012 04:00 -0,7 C 84 % 1017,1 hPa 0,0 l/m 0,0 km/h N-NW -3,1 C -0,7 C 0,0 km/h
31.01.2012 05:00 -1,0 C 84 % 1016,8 hPa 0,0 l/m 0,0 km/h N -3,4 C -1,0 C 0,0 km/h
31.01.2012 06:00 -1,1 C 85 % 1015,9 hPa 0,0 l/m 0,0 km/h NW -3,3 C -1,1 C 0,0 km/h
31.01.2012 07:00 -1,2 C 85 % 1015,3 hPa 0,0 l/m 0,0 km/h W-NW -3,4 C -1,2 C 0,0 km/h
31.01.2012 08:00 -1,4 C 85 % 1015,5 hPa 0,0 l/m 0,0 km/h W-NW -3,6 C -1,4 C 0,0 km/h
31.01.2012 09:00 -0,8 C 84 % 1015,5 hPa 0,0 l/m 1,9 km/h W-NW -3,2 C -0,8 C 1,1 km/h
31.01.2012 10:00 0,6 C 86 % 1015,7 hPa 0,0 l/m 0,0 km/h W -1,5 C 0,6 C 0,0 km/h
31.01.2012 11:00 1,6 C 87 % 1015,6 hPa 0,0 l/m 0,0 km/h S -0,3 C 1,6 C 0,0 km/h
31.01.2012 12:00 1,6 C 86 % 1015,4 hPa 0,4 l/m 9,7 km/h N-NO -0,5 C -1,4 C 5,4 km/h
31.01.2012 13:00 0,9 C 85 % 1015,3 hPa 0,0 l/m 0,0 km/h N -1,3 C 0,9 C 0,0 km/h
31.01.2012 14:00 0,4 C 86 % 1015,4 hPa 0,0 l/m 0,0 km/h N-NW -1,7 C 0,4 C 0,0 km/h
31.01.2012 15:00 -0,4 C 85 % 1015,7 hPa 0,0 l/m 0,0 km/h N -2,6 C -0,4 C 0,0 km/h
31.01.2012 16:00 -1,3 C 86 % 1016,2 hPa 0,0 l/m 0,0 km/h N -3,3 C -1,3 C 0,0 km/h
31.01.2012 17:00 -1,6 C 86 % 1016,8 hPa 0,0 l/m 0,0 km/h NW -3,6 C -1,6 C 0,0 km/h
31.01.2012 18:00 -2,1 C 87 % 1017,3 hPa 0,0 l/m 0,0 km/h W-NW -4,0 C -2,1 C 0,0 km/h
31.01.2012 19:00 -2,4 C 87 % 1018,0 hPa 0,0 l/m 0,0 km/h W-SW -4,3 C -2,4 C 0,0 km/h
31.01.2012 20:00 -2,4 C 88 % 1018,3 hPa 0,0 l/m 0,0 km/h S-SW -4,1 C -2,4 C 0,0 km/h
31.01.2012 21:00 -2,6 C 88 % 1018,6 hPa 0,0 l/m 0,0 km/h S-SW -4,3 C -2,6 C 0,0 km/h
31.01.2012 22:00 -2,7 C 88 % 1018,5 hPa 0,0 l/m 0,0 km/h N -4,4 C -2,7 C 0,0 km/h
31.01.2012 23:00 -3,4 C 88 % 1018,7 hPa 0,0 l/m 0,0 km/h N -5,1 C -3,4 C 0,0 km/h
01.02.2012 00:00 -3,9 C 87 % 1018,7 hPa 0,0 l/m 0,0 km/h O-SO -5,7 C -3,9 C 0,0 km/h
01.02.2012 01:00 -4,8 C 87 % 1019,1 hPa 0,0 l/m 0,0 km/h O-SO -6,6 C -4,8 C 0,0 km/h
01.02.2012 02:00 -5,9 C 87 % 1019,0 hPa 0,0 l/m 0,0 km/h N-NO -7,7 C -5,9 C 0,0 km/h
01.02.2012 03:00 -5,9 C 88 % 1018,8 hPa 0,0 l/m 0,0 km/h NO -7,6 C -5,9 C 0,0 km/h
01.02.2012 04:00 -4,7 C 87 % 1018,7 hPa 0,0 l/m 0,0 km/h O-SO -6,5 C -4,7 C 0,0 km/h
01.02.2012 05:00 -4,2 C 85 % 1019,0 hPa 0,0 l/m 0,0 km/h O-NO -6,3 C -4,2 C 0,0 km/h
01.02.2012 06:00 -5,2 C 83 % 1018,8 hPa 0,0 l/m 0,0 km/h NO -7,6 C -5,2 C 0,0 km/h
01.02.2012 07:00 -5,7 C 83 % 1018,8 hPa 0,0 l/m 0,0 km/h N-NO -8,1 C -5,7 C 0,0 km/h
01.02.2012 08:00 -5,7 C 83 % 1018,8 hPa 0,0 l/m 0,0 km/h N-NO -8,1 C -5,7 C 0,0 km/h
01.02.2012 09:00 -4,2 C 80 % 1018,6 hPa 0,0 l/m 0,0 km/h N-NO -7,1 C -4,2 C 0,0 km/h
01.02.2012 10:00 2,9 C 66 % 1018,3 hPa 0,0 l/m 0,0 km/h N -2,8 C 2,9 C 0,0 km/h
01.02.2012 11:00 2,1 C 57 % 1018,2 hPa 0,0 l/m 22,7 km/h N-NO -5,5 C -8,0 C 12,6 km/h
01.02.2012 12:00 1,8 C 55 % 1017,7 hPa 0,0 l/m 0,0 km/h N -6,3 C 1,8 C 0,0 km/h
01.02.2012 13:00 1,3 C 56 % 1017,5 hPa 0,0 l/m 20,1 km/h N-NO -6,5 C -8,0 C 11,2 km/h
01.02.2012 14:00 0,9 C 58 % 1017,5 hPa 0,0 l/m 0,0 km/h O -6,4 C 0,9 C 0,0 km/h
01.02.2012 15:00 2,8 C 54 % 1017,5 hPa 0,0 l/m 0,0 km/h O-NO -5,6 C 2,8 C 0,0 km/h
01.02.2012 16:00 0,3 C 56 % 1017,5 hPa 0,0 l/m 0,0 km/h N-NO -7,4 C 0,3 C 0,0 km/h
01.02.2012 17:00 -3,0 C 64 % 1017,7 hPa 0,0 l/m 3,2 km/h N-NO -8,8 C -3,0 C 1,8 km/h
01.02.2012 18:00 -3,8 C 66 % 1017,9 hPa 0,0 l/m 3,2 km/h O-NO -9,2 C -3,8 C 1,8 km/h
01.02.2012 19:00 -4,1 C 67 % 1018,3 hPa 0,0 l/m 0,0 km/h N-NO -9,3 C -4,1 C 0,0 km/h
01.02.2012 20:00 -4,4 C 68 % 1018,2 hPa 0,0 l/m 0,0 km/h N-NO -9,4 C -4,4 C 0,0 km/h
01.02.2012 21:00 -4,4 C 67 % 1017,9 hPa 0,0 l/m 0,0 km/h NO -9,6 C -4,4 C 0,0 km/h
01.02.2012 22:00 -4,4 C 67 % 1017,9 hPa 0,0 l/m 3,9 km/h N-NW -9,6 C -4,4 C 2,2 km/h
01.02.2012 23:00 -4,7 C 67 % 1017,9 hPa 0,0 l/m 7,1 km/h N-NO -9,9 C -5,5 C 4,0 km/h
02.02.2012 00:00 -5,2 C 67 % 1018,2 hPa 0,0 l/m 3,9 km/h N-NO -10,3 C -5,2 C 2,2 km/h
02.02.2012 01:00 -5,7 C 66 % 1018,2 hPa 0,0 l/m 0,0 km/h N-NO -11,0 C -5,7 C 0,0 km/h
02.02.2012 02:00 -5,8 C 66 % 1018,3 hPa 0,0 l/m 2,6 km/h N-NO -11,1 C -5,8 C 1,4 km/h
02.02.2012 03:00 -6,1 C 69 % 1018,2 hPa 0,0 l/m 0,0 km/h NO -10,8 C -6,1 C 0,0 km/h
02.02.2012 04:00 -6,4 C 69 % 1018,4 hPa 0,0 l/m 0,0 km/h N-NO -11,1 C -6,4 C 0,0 km/h
02.02.2012 05:00 -6,7 C 69 % 1018,6 hPa 0,0 l/m 0,0 km/h N-NO -11,4 C -6,7 C 0,0 km/h
02.02.2012 06:00 -6,9 C 69 % 1018,6 hPa 0,0 l/m 9,1 km/h N-NO -11,6 C -10,1 C 5,0 km/h
02.02.2012 07:00 -7,1 C 69 % 1018,8 hPa 0,0 l/m 10,4 km/h N -11,8 C -11,7 C 5,8 km/h
02.02.2012 08:00 -7,3 C 70 % 1019,5 hPa 0,0 l/m 18,8 km/h N-NO -11,8 C -18,4 C 10,4 km/h
02.02.2012 09:00 -6,4 C 68 % 1019,9 hPa 0,0 l/m 0,0 km/h N-NO -11,3 C -6,4 C 0,0 km/h
02.02.2012 10:00 -4,8 C 62 % 1020,1 hPa 0,0 l/m 0,0 km/h N-NO -10,9 C -4,8 C 0,0 km/h
02.02.2012 11:00 -4,7 C 61 % 1020,5 hPa 0,0 l/m 0,0 km/h N-NO -11,0 C -4,7 C 0,0 km/h
02.02.2012 12:00 -4,8 C 61 % 1020,4 hPa 0,0 l/m 18,8 km/h N-NO -11,1 C -15,2 C 10,4 km/h
02.02.2012 13:00 -4,2 C 57 % 1020,2 hPa 0,0 l/m 0,0 km/h N-NO -11,4 C -4,2 C 0,0 km/h
02.02.2012 14:00 -3,9 C 56 % 1020,5 hPa 0,0 l/m 0,0 km/h N -11,4 C -3,9 C 0,0 km/h
02.02.2012 15:00 -3,9 C 56 % 1020,5 hPa 0,0 l/m 10,4 km/h N-NO -11,4 C -8,1 C 5,8 km/h
02.02.2012 16:00 -4,4 C 55 % 1020,9 hPa 0,0 l/m 0,0 km/h N-NO -12,0 C -4,4 C 0,0 km/h
02.02.2012 17:00 -5,1 C 58 % 1021,4 hPa 0,0 l/m 0,0 km/h O-NO -12,0 C -5,1 C 0,0 km/h
02.02.2012 18:00 -5,2 C 58 % 1021,7 hPa 0,0 l/m 0,0 km/h O-NO -12,1 C -5,2 C 0,0 km/h
02.02.2012 19:00 -5,6 C 58 % 1022,3 hPa 0,0 l/m 0,0 km/h N-NO -12,5 C -5,6 C 0,0 km/h
02.02.2012 20:00 -6,2 C 57 % 1022,5 hPa 0,0 l/m 0,0 km/h NO -13,3 C -6,2 C 0,0 km/h
02.02.2012 21:00 -6,9 C 58 % 1022,9 hPa 0,0 l/m 0,0 km/h NO -13,7 C -6,9 C 0,0 km/h
02.02.2012 22:00 -7,1 C 59 % 1023,2 hPa 0,0 l/m 0,0 km/h NO -13,7 C -7,1 C 0,0 km/h
02.02.2012 23:00 -7,5 C 60 % 1023,7 hPa 0,0 l/m 0,0 km/h NO -13,9 C -7,5 C 0,0 km/h
03.02.2012 00:00 -8,3 C 61 % 1024,1 hPa 0,0 l/m 0,0 km/h N-NO -14,5 C -8,3 C 0,0 km/h
03.02.2012 01:00 -8,2 C 60 % 1024,5 hPa 0,0 l/m 0,0 km/h N-NO -14,6 C -8,2 C 0,0 km/h
03.02.2012 02:00 -8,8 C 60 % 1024,7 hPa 0,0 l/m 0,0 km/h O-NO -15,1 C -8,8 C 0,0 km/h
03.02.2012 03:00 -9,4 C 61 % 1024,6 hPa 0,0 l/m 0,0 km/h N-NO -15,5 C -9,4 C 0,0 km/h
03.02.2012 04:00 -10,8 C 65 % 1024,9 hPa 0,0 l/m 0,0 km/h NO -16,1 C -10,8 C 0,0 km/h
03.02.2012 05:00 -10,9 C 67 % 1025,3 hPa 0,0 l/m 0,0 km/h N-NO -15,8 C -10,9 C 0,0 km/h
03.02.2012 06:00 -11,3 C 68 % 1025,5 hPa 0,0 l/m 0,0 km/h N-NO -16,0 C -11,3 C 0,0 km/h
03.02.2012 07:00 -11,7 C 68 % 1026,1 hPa 0,0 l/m 0,0 km/h N-NO -16,4 C -11,7 C 0,0 km/h
03.02.2012 08:00 -11,6 C 68 % 1027,1 hPa 0,0 l/m 0,0 km/h N -16,3 C -11,6 C 0,0 km/h
03.02.2012 09:00 -6,7 C 58 % 1027,5 hPa 0,0 l/m 4,5 km/h NO -13,6 C -6,7 C 2,5 km/h
03.02.2012 10:00 -3,4 C 52 % 1027,5 hPa 0,0 l/m 0,0 km/h N-NO -11,8 C -3,4 C 0,0 km/h
03.02.2012 11:00 -2,7 C 43 % 1027,8 hPa 0,0 l/m 0,0 km/h N-NO -13,5 C -2,7 C 0,0 km/h
03.02.2012 12:00 -2,3 C 42 % 1027,5 hPa 0,0 l/m 10,4 km/h SO -13,4 C -6,3 C 5,8 km/h
03.02.2012 13:00 -1,9 C 39 % 1027,3 hPa 0,0 l/m 16,8 km/h N-NO -14,0 C -10,4 C 9,4 km/h
03.02.2012 14:00 -1,1 C 38 % 1027,3 hPa 0,0 l/m 0,0 km/h N-NO -13,6 C -1,1 C 0,0 km/h
03.02.2012 15:00 0,7 C 33 % 1027,5 hPa 0,0 l/m 0,0 km/h O-NO -13,7 C 0,7 C 0,0 km/h
03.02.2012 16:00 -0,4 C 33 % 1028,0 hPa 0,0 l/m 0,0 km/h N-NO -14,7 C -0,4 C 0,0 km/h
03.02.2012 17:00 -6,1 C 40 % 1028,7 hPa 0,0 l/m 0,0 km/h NO -17,5 C -6,1 C 0,0 km/h
03.02.2012 18:00 -8,4 C 49 % 1029,6 hPa 0,0 l/m 0,0 km/h N-NO -17,2 C -8,4 C 0,0 km/h
03.02.2012 19:00 -9,2 C 52 % 1029,9 hPa 0,0 l/m 0,0 km/h O -17,2 C -9,2 C 0,0 km/h
03.02.2012 20:00 -10,7 C 57 % 1030,3 hPa 0,0 l/m 0,0 km/h O -17,5 C -10,7 C 0,0 km/h
03.02.2012 21:00 -11,8 C 65 % 1030,9 hPa 0,0 l/m 0,0 km/h SO -17,0 C -11,8 C 0,0 km/h
03.02.2012 22:00 -12,6 C 69 % 1031,0 hPa 0,0 l/m 0,0 km/h SO -17,1 C -12,6 C 0,0 km/h
03.02.2012 23:00 -13,2 C 73 % 1030,9 hPa 0,0 l/m 0,0 km/h SO -17,0 C -13,2 C 0,0 km/h
04.02.2012 00:00 -13,6 C 74 % 1031,0 hPa 0,0 l/m 0,0 km/h O -17,2 C -13,6 C 0,0 km/h
04.02.2012 01:00 -13,5 C 76 % 1030,7 hPa 0,0 l/m 0,0 km/h O-SO -16,8 C -13,5 C 0,0 km/h
04.02.2012 02:00 -13,9 C 77 % 1030,7 hPa 0,0 l/m 0,0 km/h O-SO -17,0 C -13,9 C 0,0 km/h
04.02.2012 03:00 -14,9 C 77 % 1030,5 hPa 0,0 l/m 0,0 km/h O-SO -18,0 C -14,9 C 0,0 km/h
04.02.2012 04:00 -14,9 C 79 % 1030,6 hPa 0,0 l/m 0,0 km/h SO -17,7 C -14,9 C 0,0 km/h
04.02.2012 05:00 -14,8 C 79 % 1031,0 hPa 0,0 l/m 0,0 km/h SO -17,6 C -14,8 C 0,0 km/h
04.02.2012 06:00 -14,9 C 79 % 1030,6 hPa 0,0 l/m 0,0 km/h W -17,7 C -14,9 C 0,0 km/h
04.02.2012 07:00 -13,9 C 79 % 1031,0 hPa 0,0 l/m 1,3 km/h W-SW -16,7 C -13,9 C 0,7 km/h
04.02.2012 08:00 -13,9 C 79 % 1031,4 hPa 0,0 l/m 0,0 km/h W -16,7 C -13,9 C 0,0 km/h
04.02.2012 09:00 -7,0 C 71 % 1031,6 hPa 0,0 l/m 0,0 km/h S-SO -11,3 C -7,0 C 0,0 km/h
04.02.2012 10:00 -2,1 C 56 % 1031,7 hPa 0,0 l/m 0,0 km/h O-NO -9,7 C -2,1 C 0,0 km/h
04.02.2012 11:00 0,0 C 45 % 1031,6 hPa 0,0 l/m 0,0 km/h NO -10,5 C 0,0 C 0,0 km/h
04.02.2012 12:00 -0,8 C 38 % 1031,3 hPa 0,0 l/m 0,0 km/h N -13,3 C -0,8 C 0,0 km/h
04.02.2012 13:00 -1,6 C 35 % 1030,9 hPa 0,0 l/m 3,2 km/h O -15,0 C -1,6 C 1,8 km/h
04.02.2012 14:00 -0,7 C 34 % 1030,6 hPa 0,0 l/m 6,5 km/h O -14,6 C -0,8 C 3,6 km/h
04.02.2012 15:00 0,1 C 32 % 1030,6 hPa 0,0 l/m 0,0 km/h O-NO -14,6 C 0,1 C 0,0 km/h
04.02.2012 16:00 -0,8 C 32 % 1030,7 hPa 0,0 l/m 0,0 km/h O -15,4 C -0,8 C 0,0 km/h
04.02.2012 17:00 -5,2 C 40 % 1030,8 hPa 0,0 l/m 0,0 km/h NO -16,6 C -5,2 C 0,0 km/h
04.02.2012 18:00 -8,5 C 48 % 1031,5 hPa 0,0 l/m 0,0 km/h NO -17,5 C -8,5 C 0,0 km/h
04.02.2012 19:00 -10,2 C 56 % 1031,8 hPa 0,0 l/m 0,0 km/h NO -17,3 C -10,2 C 0,0 km/h
04.02.2012 20:00 -11,5 C 60 % 1031,8 hPa 0,0 l/m 0,0 km/h N-NO -17,7 C -11,5 C 0,0 km/h
04.02.2012 21:00 -11,2 C 67 % 1031,6 hPa 0,0 l/m 0,0 km/h SO -16,1 C -11,2 C 0,0 km/h
04.02.2012 22:00 -11,9 C 71 % 1031,6 hPa 0,0 l/m 0,0 km/h SO -16,1 C -11,9 C 0,0 km/h
04.02.2012 23:00 -13,2 C 73 % 1031,4 hPa 0,0 l/m 0,0 km/h O-NO -17,0 C -13,2 C 0,0 km/h
05.02.2012 00:00 -12,4 C 76 % 1030,6 hPa 0,0 l/m 0,0 km/h O-NO -15,7 C -12,4 C 0,0 km/h
05.02.2012 01:00 -13,5 C 76 % 1030,2 hPa 0,0 l/m 0,0 km/h O-NO -16,8 C -13,5 C 0,0 km/h
05.02.2012 02:00 -13,2 C 77 % 1029,6 hPa 0,0 l/m 0,0 km/h SO -16,4 C -13,2 C 0,0 km/h
05.02.2012 03:00 -12,4 C 76 % 1029,2 hPa 0,0 l/m 0,0 km/h O-NO -15,7 C -12,4 C 0,0 km/h
05.02.2012 04:00 -13,5 C 76 % 1028,9 hPa 0,0 l/m 0,0 km/h O-NO -16,8 C -13,5 C 0,0 km/h
05.02.2012 05:00 -14,0 C 78 % 1028,7 hPa 0,0 l/m 0,0 km/h O-SO -17,0 C -14,0 C 0,0 km/h
05.02.2012 06:00 -14,7 C 78 % 1028,4 hPa 0,0 l/m 0,0 km/h O -17,7 C -14,7 C 0,0 km/h
05.02.2012 07:00 -14,8 C 79 % 1028,3 hPa 0,0 l/m 0,0 km/h O-SO -17,6 C -14,8 C 0,0 km/h
05.02.2012 08:00 -15,1 C 80 % 1028,0 hPa 0,0 l/m 0,0 km/h SO -17,8 C -15,1 C 0,0 km/h
05.02.2012 09:00 -6,8 C 75 % 1027,6 hPa 0,0 l/m 0,0 km/h N-NO -10,5 C -6,8 C 0,0 km/h
05.02.2012 10:00 -3,6 C 58 % 1026,9 hPa 0,0 l/m 0,0 km/h W -10,6 C -3,6 C 0,0 km/h
05.02.2012 11:00 -1,9 C 53 % 1027,2 hPa 0,0 l/m 2,6 km/h W -10,2 C -1,9 C 1,4 km/h
05.02.2012 12:00 -0,9 C 48 % 1026,5 hPa 0,0 l/m 0,0 km/h W -10,5 C -0,9 C 0,0 km/h
05.02.2012 13:00 -1,0 C 46 % 1025,8 hPa 0,0 l/m 0,0 km/h W-NW -11,1 C -1,0 C 0,0 km/h
05.02.2012 14:00 -0,1 C 43 % 1025,4 hPa 0,0 l/m 9,7 km/h W -11,1 C -3,3 C 5,4 km/h
05.02.2012 15:00 1,9 C 38 % 1025,5 hPa 0,0 l/m 7,1 km/h W-SW -10,9 C 1,2 C 4,0 km/h
05.02.2012 16:00 2,1 C 37 % 1025,8 hPa 0,0 l/m 1,9 km/h SO -11,0 C 2,1 C 1,1 km/h
05.02.2012 17:00 -3,6 C 39 % 1026,1 hPa 0,0 l/m 0,0 km/h W -15,5 C -3,6 C 0,0 km/h
05.02.2012 18:00 -7,2 C 48 % 1026,7 hPa 0,0 l/m 0,0 km/h O-NO -16,3 C -7,2 C 0,0 km/h
05.02.2012 19:00 -8,4 C 54 % 1027,0 hPa 0,0 l/m 0,0 km/h SO -16,0 C -8,4 C 0,0 km/h
05.02.2012 20:00 -9,3 C 57 % 1027,6 hPa 0,0 l/m 0,0 km/h SO -16,2 C -9,3 C 0,0 km/h
05.02.2012 21:00 -10,8 C 64 % 1027,7 hPa 0,0 l/m 0,0 km/h O-SO -16,2 C -10,8 C 0,0 km/h
05.02.2012 22:00 -10,2 C 66 % 1028,0 hPa 0,0 l/m 0,6 km/h O-SO -15,3 C -10,2 C 0,4 km/h
05.02.2012 23:00 -10,8 C 67 % 1027,9 hPa 0,0 l/m 0,0 km/h O-SO -15,7 C -10,8 C 0,0 km/h
Min-Datum _ 05.02.12 04.02.12 31.01.12 - 30.01.12 - 04.02.12 02.02.12 30.01.12
_ Min-Zeit 08:30 15:30 07:30 - 00:30 - 03:30 08:30 00:30
Minimum _ -15,1 C 32 % 1015,3 hPa - 0,0 km/h - -18,0 C -18,4 C 0,0 km/h
Max-Datum _ 01.02.12 31.01.12 04.02.12 31.01.12 01.02.12 - 31.01.12 01.02.12 01.02.12
_ Max-Zeit 10:30 20:30 19:30 12:30 11:30 - 11:30 10:30 11:30
Maximum _ 2,9 C 88 % 1031,8 hPa 0,4 l/m 22,7 km/h
N-NO
- -0,3 C 2,9 C 12,6 km/h
N-NO
Durchschnitt _ -4,8 C 69 % 1023,3 hPa #0,4 l/m 1,3 km/h N-NO -10,0 C -5,3 C 0,7 km/h
www.sexauwetter.de